Time;durP1;ratioP1;P1;durP2;ratioP2;P2;SDS_P1;SDS_P2;PMS_P1;PMS_P2;Temp;Humidity;BMP_temperature;BMP_pressure;BME280_temperature;BME280_humidity;BME280_pressure;Samples;Min_cycle;Max_cycle;Signal;HPM_P1;HPM_P2
2022/11/21 00:01:27;;;;;;;13.05;6.15;;;;;;;11.58;85.20;93955.72;5054258;28;20033;-76
2022/11/21 00:03:53;;;;;;;8.73;6.03;;;;;;;11.44;85.46;93952.38;5047616;28;20041;-76
2022/11/21 00:06:19;;;;;;;11.05;5.72;;;;;;;11.68;85.20;93959.16;5053587;28;20521;-76
2022/11/21 00:08:45;;;;;;;10.75;6.18;;;;;;;11.56;84.78;93936.66;5050969;28;20032;-76
2022/11/21 00:11:11;;;;;;;13.88;6.30;;;;;;;11.52;84.67;93945.53;5071285;28;20043;-76
2022/11/21 00:13:36;;;;;;;15.48;5.90;;;;;;;11.50;84.93;93923.84;5049935;28;20025;-76
2022/11/21 00:16:07;;;;;;;12.05;6.15;;;;;;;11.69;84.43;93936.81;5048044;28;20538;-76
2022/11/21 00:18:34;;;;;;;14.60;5.47;;;;;;;11.60;84.69;93921.66;5064200;28;20145;-76
2022/11/21 00:21:11;;;;;;;12.07;5.40;;;;;;;11.18;85.02;93856.00;5055963;28;20036;-76
2022/11/21 00:23:36;;;;;;;10.75;5.63;;;;;;;11.44;84.96;93885.25;5063688;28;20029;-76
2022/11/21 00:26:06;;;;;;;13.23;5.43;;;;;;;11.14;85.23;93845.19;5054242;28;20041;-76
2022/11/21 00:28:33;;;;;;;14.43;6.00;;;;;;;11.57;86.05;93908.22;5052503;28;20102;-76
2022/11/21 00:30:58;;;;;;;9.93;4.80;;;;;;;11.60;85.27;93902.28;5071666;28;20056;-76
2022/11/21 00:33:24;;;;;;;10.30;5.45;;;;;;;11.23;85.83;93834.59;5071385;28;20103;-76
2022/11/21 00:35:49;;;;;;;9.05;4.40;;;;;;;11.52;85.94;93877.28;5069801;28;20228;-76
2022/11/21 00:38:15;;;;;;;9.85;4.60;;;;;;;11.10;85.97;93852.22;5062098;28;20041;-76
2022/11/21 00:40:44;;;;;;;11.00;5.15;;;;;;;11.17;84.96;93859.72;5053395;28;20063;-76
2022/11/21 00:43:10;;;;;;;9.20;3.90;;;;;;;11.31;85.60;93852.44;5070816;28;20119;-76
2022/11/21 00:45:36;;;;;;;10.88;5.57;;;;;;;11.34;86.84;93886.31;5071487;28;20475;-76
2022/11/21 00:48:01;;;;;;;13.18;5.68;;;;;;;11.33;86.68;93903.34;5052803;28;20056;-76
2022/11/21 00:50:27;;;;;;;11.40;5.80;;;;;;;11.18;86.12;93895.78;5052432;28;20032;-76
2022/11/21 00:52:56;;;;;;;13.98;6.03;;;;;;;10.69;86.76;93827.91;5071004;28;20041;-76
2022/11/21 00:55:25;;;;;;;14.45;6.75;;;;;;;11.27;86.49;93861.31;5076834;28;20071;-76
2022/11/21 00:57:50;;;;;;;9.02;5.93;;;;;;;11.28;86.96;93884.13;5086641;28;20077;-76
2022/11/21 01:00:17;;;;;;;9.45;5.95;;;;;;;11.14;87.76;93885.00;5055421;28;20070;-76
2022/11/21 01:02:43;;;;;;;13.57;5.53;;;;;;;11.27;87.31;93885.22;5052809;28;20037;-76
2022/11/21 01:05:08;;;;;;;10.45;5.97;;;;;;;11.03;87.30;93825.38;5070922;28;20055;-77
2022/11/21 01:07:34;;;;;;;10.25;5.80;;;;;;;10.54;87.24;93754.06;5070200;28;20068;-77
2022/11/21 01:09:59;;;;;;;12.18;5.28;;;;;;;11.26;86.88;93855.22;5071823;28;20063;-77
2022/11/21 01:12:24;;;;;;;11.05;5.15;;;;;;;10.82;87.76;93813.78;5043294;28;20063;-76
2022/11/21 01:14:50;;;;;;;13.35;5.13;;;;;;;10.77;87.43;93801.41;5067109;28;20048;-76
2022/11/21 01:17:16;;;;;;;15.05;7.93;;;;;;;10.44;88.73;93800.22;5062295;28;20037;-77
2022/11/21 01:19:41;;;;;;;14.88;9.35;;;;;;;10.87;89.07;93858.72;5067143;28;20045;-77
2022/11/21 01:22:07;;;;;;;16.27;10.00;;;;;;;10.81;88.43;93879.28;5070383;28;20051;-77
2022/11/21 01:24:32;;;;;;;13.05;8.02;;;;;;;10.61;88.67;93892.25;5070580;28;20040;-77
2022/11/21 01:26:58;;;;;;;15.07;9.02;;;;;;;10.20;89.62;93861.50;5052292;28;20037;-77
2022/11/21 01:29:23;;;;;;;13.65;8.38;;;;;;;10.46;89.54;93864.28;5056944;28;20435;-77
2022/11/21 01:31:49;;;;;;;8.48;3.95;;;;;;;10.58;88.15;93843.31;5074685;28;20101;-77
2022/11/21 01:34:14;;;;;;;9.32;4.80;;;;;;;10.66;87.81;93861.13;5040557;28;20137;-77
2022/11/21 01:36:40;;;;;;;15.77;9.15;;;;;;;10.56;88.56;93876.50;5032957;28;20080;-77
2022/11/21 01:39:06;;;;;;;17.92;11.30;;;;;;;10.52;88.53;93863.09;5065105;28;20064;-77
2022/11/21 01:41:35;;;;;;;18.42;10.85;;;;;;;10.39;89.76;93856.75;5049008;28;20131;-76
2022/11/21 01:44:05;;;;;;;16.60;10.63;;;;;;;10.35;90.34;93863.78;5046276;28;20072;-76
2022/11/21 01:46:30;;;;;;;16.63;10.43;;;;;;;10.29;89.81;93846.44;5069757;28;20441;-76
2022/11/21 01:48:56;;;;;;;16.83;10.93;;;;;;;10.55;89.75;93861.69;5069672;28;20044;-76
2022/11/21 01:51:38;;;;;;;18.02;11.43;;;;;;;10.59;89.34;93858.13;5070358;28;20056;-76
2022/11/21 01:54:12;;;;;;;15.05;10.40;;;;;;;10.76;89.23;93865.34;5069580;28;20052;-77
2022/11/21 01:57:03;;;;;;;18.55;10.00;;;;;;;10.74;88.61;93835.72;5069785;28;20044;-76
2022/11/21 01:59:33;;;;;;;15.52;9.95;;;;;;;10.41;88.26;93776.97;5064344;28;20475;-76
2022/11/21 02:02:02;;;;;;;14.45;9.93;;;;;;;10.51;88.18;93805.84;5063603;28;20068;-77
2022/11/21 02:04:30;;;;;;;17.25;10.45;;;;;;;10.59;88.33;93810.41;5069614;28;20052;-77
2022/11/21 02:06:57;;;;;;;18.20;10.38;;;;;;;10.80;87.66;93829.19;5069555;28;20040;-77
2022/11/21 02:09:24;;;;;;;15.30;9.20;;;;;;;10.98;87.28;93862.66;5069226;28;20045;-77
2022/11/21 02:12:01;;;;;;;13.77;9.60;;;;;;;10.41;88.27;93824.66;5052293;28;20044;-76
2022/11/21 02:14:27;;;;;;;13.77;8.63;;;;;;;10.27;87.40;93808.06;5069779;28;20032;-76
2022/11/21 02:16:59;;;;;;;14.70;9.52;;;;;;;10.23;87.99;93815.84;5062661;28;20041;-76
2022/11/21 02:19:53;;;;;;;15.15;9.93;;;;;;;10.44;88.54;93802.88;5045559;28;20132;-77
2022/11/21 02:22:40;;;;;;;20.33;11.35;;;;;;;10.94;88.11;93852.94;5056692;28;20044;-78
2022/11/21 02:25:13;;;;;;;16.85;10.48;;;;;;;10.80;87.55;93840.59;5063751;28;20048;-78
2022/11/21 02:27:39;;;;;;;16.63;10.52;;;;;;;10.58;87.43;93790.28;5040427;28;20044;-77
2022/11/21 02:30:07;;;;;;;18.10;10.27;;;;;;;10.57;86.97;93753.47;5060105;28;20052;-77
2022/11/21 02:32:36;;;;;;;20.60;10.88;;;;;;;11.07;87.39;93874.06;5059733;28;20040;-78
2022/11/21 02:35:01;;;;;;;18.80;10.35;;;;;;;10.99;87.92;93868.72;5076126;28;20101;-78
2022/11/21 02:37:28;;;;;;;20.25;10.85;;;;;;;11.03;87.79;93851.91;5069657;28;20112;-78
2022/11/21 02:39:57;;;;;;;20.65;11.32;;;;;;;11.14;88.06;93855.81;5069498;28;20040;-78
2022/11/21 02:42:37;;;;;;;17.08;10.20;;;;;;;10.76;87.92;93818.41;5069080;28;20492;-78
2022/11/21 02:45:13;;;;;;;18.27;9.98;;;;;;;10.57;88.70;93820.53;5069231;28;20045;-78
2022/11/21 02:47:40;;;;;;;18.13;10.07;;;;;;;10.27;88.90;93763.81;5069681;28;20072;-75
2022/11/21 02:50:33;;;;;;;22.75;11.35;;;;;;;10.05;88.92;93689.66;5062836;28;20040;-75
2022/11/21 02:52:58;;;;;;;17.13;10.15;;;;;;;10.57;87.99;93770.16;5047972;28;20047;-75
2022/11/21 02:55:25;;;;;;;17.48;9.90;;;;;;;10.62;88.68;93770.00;5070215;28;20410;-76
2022/11/21 02:57:51;;;;;;;19.98;10.23;;;;;;;10.62;88.88;93793.88;5051812;28;20540;-75
2022/11/21 03:00:17;;;;;;;16.33;7.90;;;;;;;10.40;87.98;93717.09;5070043;28;20032;-76
2022/11/21 03:02:43;;;;;;;16.65;7.95;;;;;;;10.99;87.85;93773.22;5069290;28;20041;-75
2022/11/21 03:05:10;;;;;;;14.55;6.38;;;;;;;10.73;87.05;93734.19;5051463;28;20102;-75
2022/11/21 03:07:36;;;;;;;12.50;7.25;;;;;;;10.54;86.24;93754.84;5069910;28;20051;-75
2022/11/21 03:10:02;;;;;;;11.63;6.45;;;;;;;10.90;86.99;93791.78;5069613;28;20510;-75
2022/11/21 03:12:28;;;;;;;11.90;6.10;;;;;;;10.47;86.17;93720.06;5052348;28;20037;-75
2022/11/21 03:14:53;;;;;;;12.10;6.05;;;;;;;11.00;86.13;93772.91;5040540;28;20045;-75
2022/11/21 03:17:18;;;;;;;10.27;6.47;;;;;;;10.92;85.71;93741.06;5049605;28;20124;-75
2022/11/21 03:19:44;;;;;;;13.50;7.03;;;;;;;10.90;85.87;93722.06;5055197;28;20033;-75
2022/11/21 03:22:11;;;;;;;11.38;6.03;;;;;;;11.47;85.57;93792.50;5082373;28;20467;-76
2022/11/21 03:24:37;;;;;;;12.38;6.90;;;;;;;11.17;85.15;93748.28;5044799;28;20039;-76
2022/11/21 03:27:02;;;;;;;12.98;5.82;;;;;;;10.78;84.91;93710.16;5052230;28;20127;-75
2022/11/21 03:29:27;;;;;;;12.57;5.57;;;;;;;11.44;85.55;93802.97;5054855;28;20056;-75
2022/11/21 03:31:53;;;;;;;18.10;6.30;;;;;;;11.46;85.26;93819.34;5066329;28;20139;-76
2022/11/21 03:34:18;;;;;;;11.82;5.57;;;;;;;11.40;85.21;93808.09;5053511;28;20036;-75
2022/11/21 03:36:44;;;;;;;11.20;4.40;;;;;;;11.03;83.52;93731.72;5082787;28;20119;-76
2022/11/21 03:39:09;;;;;;;10.73;4.03;;;;;;;11.20;82.77;93755.63;5064254;28;20488;-76
2022/11/21 03:41:34;;;;;;;5.80;3.97;;;;;;;11.33;83.38;93748.59;5050963;28;20064;-75
2022/11/21 03:44:08;;;;;;;7.55;3.88;;;;;;;11.68;83.87;93783.88;5072355;28;20139;-75
2022/11/21 03:46:36;;;;;;;9.75;4.75;;;;;;;11.36;83.65;93726.75;5054897;28;20075;-76
2022/11/21 03:49:03;;;;;;;7.80;4.60;;;;;;;11.78;83.96;93795.00;5054589;28;20045;-76
2022/11/21 03:51:28;;;;;;;15.27;4.03;;;;;;;11.28;83.39;93741.59;5073007;28;20058;-76
2022/11/21 03:53:54;;;;;;;7.97;4.22;;;;;;;11.19;85.08;93772.66;5065754;28;20171;-75
2022/11/21 03:56:20;;;;;;;11.05;3.92;;;;;;;11.35;84.71;93812.78;5075494;28;20076;-75
2022/11/21 03:58:45;;;;;;;14.43;4.85;;;;;;;11.02;84.90;93738.13;5072574;28;20032;-76
2022/11/21 04:01:14;;;;;;;7.90;4.15;;;;;;;11.14;84.56;93720.50;5047187;28;20391;-76
2022/11/21 04:03:43;;;;;;;7.07;4.38;;;;;;;11.48;83.11;93769.38;5054060;28;20045;-75
2022/11/21 04:06:10;;;;;;;10.00;4.18;;;;;;;11.17;83.25;93719.09;5072734;28;20032;-75
2022/11/21 04:08:36;;;;;;;10.95;4.93;;;;;;;11.58;83.88;93783.13;5072576;28;20040;-76
2022/11/21 04:11:02;;;;;;;9.38;4.85;;;;;;;11.62;84.01;93775.31;5072339;28;20046;-76
2022/11/21 04:13:27;;;;;;;16.20;4.90;;;;;;;11.31;83.93;93713.63;5053939;28;20427;-76
2022/11/21 04:15:53;;;;;;;13.25;4.78;;;;;;;11.38;83.33;93733.31;5054712;28;20585;-76
2022/11/21 04:18:18;;;;;;;12.95;5.35;;;;;;;11.26;83.73;93695.22;5072310;28;20041;-75
2022/11/21 04:20:43;;;;;;;12.55;4.05;;;;;;;11.63;83.06;93754.84;5072255;28;20487;-75
2022/11/21 04:23:09;;;;;;;13.35;4.55;;;;;;;11.62;82.97;93762.03;5072122;28;20542;-75
2022/11/21 04:25:34;;;;;;;14.68;3.78;;;;;;;11.39;82.75;93731.44;5053268;28;20044;-76
2022/11/21 04:28:02;;;;;;;10.68;4.68;;;;;;;11.56;83.79;93779.22;5054551;28;20072;-75
2022/11/21 04:30:28;;;;;;;10.43;4.45;;;;;;;11.17;84.64;93727.06;5071809;28;20049;-76
2022/11/21 04:32:55;;;;;;;18.27;4.70;;;;;;;11.52;83.76;93767.66;5072181;28;20052;-76
2022/11/21 04:35:22;;;;;;;10.18;3.40;;;;;;;11.48;83.34;93780.00;5069452;28;20033;-75
2022/11/21 04:37:47;;;;;;;12.48;3.83;;;;;;;11.09;84.02;93752.50;5062780;28;20032;-75
2022/11/21 04:40:14;;;;;;;12.80;4.03;;;;;;;11.34;83.44;93779.38;5053693;28;20529;-75
2022/11/21 04:42:46;;;;;;;10.50;4.18;;;;;;;11.41;82.54;93775.16;5071900;28;20032;-75
2022/11/21 04:45:13;;;;;;;12.68;3.45;;;;;;;11.48;82.75;93791.41;5066491;28;20124;-76
2022/11/21 04:47:40;;;;;;;15.18;4.90;;;;;;;10.51;83.46;93704.34;5053975;28;20138;-75
2022/11/21 04:50:07;;;;;;;14.30;5.30;;;;;;;10.98;83.74;93777.00;5045742;28;20036;-76
2022/11/21 04:52:34;;;;;;;9.57;4.05;;;;;;;10.70;84.12;93795.00;5071814;28;20529;-75
2022/11/21 04:54:59;;;;;;;8.48;4.97;;;;;;;10.49;85.03;93781.50;5072054;28;20044;-75
2022/11/21 04:57:27;;;;;;;10.05;3.17;;;;;;;10.37;84.88;93776.81;5053499;28;20128;-75
2022/11/21 04:59:52;;;;;;;5.47;3.20;;;;;;;10.67;84.60;93812.31;5038175;28;20070;-75
2022/11/21 05:02:17;;;;;;;6.30;3.42;;;;;;;10.55;84.23;93825.34;5083052;28;20391;-75
2022/11/21 05:04:43;;;;;;;6.07;3.55;;;;;;;10.41;84.93;93828.09;5090061;28;20118;-76
2022/11/21 05:07:08;;;;;;;12.82;3.85;;;;;;;10.65;84.67;93837.56;5054862;28;20040;-75
2022/11/21 05:09:34;;;;;;;7.43;4.15;;;;;;;10.54;84.93;93799.13;5042401;28;20040;-76
2022/11/21 05:14:43;;;;;;;8.43;3.25;;;;;;;10.61;82.35;93829.41;5068969;28;20101;-75
2022/11/21 05:17:09;;;;;;;8.05;3.20;;;;;;;9.78;82.87;93748.09;5065941;28;20048;-76
2022/11/21 05:19:34;;;;;;;8.15;3.20;;;;;;;10.03;83.24;93785.31;5042350;28;20091;-75
2022/11/21 05:22:01;;;;;;;6.63;2.13;;;;;;;9.81;82.91;93780.03;5061388;28;20040;-75
2022/11/21 05:24:26;;;;;;;6.57;2.38;;;;;;;9.89;83.04;93802.38;5061280;28;20093;-76
2022/11/21 05:26:53;;;;;;;4.35;2.03;;;;;;;9.89;82.64;93818.25;5061120;28;20044;-76
2022/11/21 05:29:18;;;;;;;4.47;2.30;;;;;;;10.06;81.46;93877.44;5065946;28;20037;-75
2022/11/21 05:31:44;;;;;;;4.10;1.48;;;;;;;9.48;82.22;93799.88;5032918;28;20075;-76
2022/11/21 05:34:09;;;;;;;3.85;1.70;;;;;;;9.41;81.82;93810.09;5047707;28;20045;-77
2022/11/21 05:36:35;;;;;;;3.85;1.33;;;;;;;9.92;82.71;93862.66;5060945;28;20040;-76
2022/11/21 05:39:00;;;;;;;4.22;1.77;;;;;;;9.09;81.82;93731.72;5065839;28;20382;-76
2022/11/21 05:41:25;;;;;;;4.93;1.70;;;;;;;9.84;82.30;93885.34;5026007;28;20086;-76
2022/11/21 05:43:51;;;;;;;4.18;1.58;;;;;;;9.34;81.22;93822.97;5062680;28;20067;-76
2022/11/21 05:46:20;;;;;;;5.47;1.52;;;;;;;9.58;81.07;93879.06;5064500;28;20044;-76
2022/11/21 05:48:47;;;;;;;4.47;1.80;;;;;;;9.25;81.32;93883.72;5061365;28;21557;-76
2022/11/21 05:51:13;;;;;;;6.88;1.85;;;;;;;8.56;81.04;93838.00;5067072;28;20041;-76
2022/11/21 05:53:39;;;;;;;4.55;1.90;;;;;;;8.90;80.99;93845.56;5061868;28;20032;-76
2022/11/21 05:56:08;;;;;;;3.08;1.50;;;;;;;9.17;80.82;93877.25;5050778;28;20040;-76
2022/11/21 05:58:33;;;;;;;4.38;1.65;;;;;;;8.78;81.18;93810.88;5040879;28;20052;-76
2022/11/21 06:00:59;;;;;;;2.83;1.70;;;;;;;8.99;79.68;93875.53;5054575;28;20044;-76
2022/11/21 06:03:26;;;;;;;2.75;1.30;;;;;;;9.03;79.67;93932.03;5038595;28;20060;-76
2022/11/21 06:06:08;;;;;;;2.40;1.00;;;;;;;8.53;80.04;93933.72;5034841;28;20659;-77
2022/11/21 06:08:43;;;;;;;;;;;;;;;8.39;80.66;93954.81;5037337;28;20021;-76
2022/11/21 06:11:12;;;;;;;3.83;1.00;;;;;;;7.58;81.17;93847.81;5059720;28;20351;-76
2022/11/21 06:13:37;;;;;;;1.30;0.80;;;;;;;8.25;81.52;93958.44;5053673;28;20094;-76
2022/11/21 06:16:04;;;;;;;2.47;1.02;;;;;;;7.77;80.64;93913.78;5056373;28;20033;-79
2022/11/21 06:18:35;;;;;;;0.80;0.80;;;;;;;8.05;81.40;93975.41;5066961;28;20036;-79
2022/11/21 06:21:03;;;;;;;10.70;1.45;;;;;;;7.72;81.83;93933.09;5049298;28;20565;-78
2022/11/21 06:23:29;;;;;;;1.15;0.90;;;;;;;7.85;82.04;93942.16;5045009;28;20036;-79
2022/11/21 06:25:58;;;;;;;1.80;0.90;;;;;;;7.84;81.31;93980.19;5055713;28;20040;-79
2022/11/21 06:28:26;;;;;;;1.92;1.10;;;;;;;7.63;81.97;93998.13;5038087;28;20055;-78
2022/11/21 06:30:51;;;;;;;2.15;1.00;;;;;;;6.50;81.71;93814.41;5058253;28;20056;-78
2022/11/21 06:33:18;;;;;;;5.65;1.27;;;;;;;7.49;81.85;94005.16;5054431;28;20047;-78
2022/11/21 06:35:43;;;;;;;4.18;1.10;;;;;;;7.58;82.37;94000.81;5054908;28;20687;-77
2022/11/21 06:38:11;;;;;;;2.83;1.10;;;;;;;6.97;81.23;93961.19;5052538;28;20141;-77
2022/11/21 06:40:37;;;;;;;1.38;1.00;;;;;;;6.95;81.83;94003.63;5036022;28;20055;-78
2022/11/21 06:43:02;;;;;;;1.88;1.23;;;;;;;6.83;82.79;93974.25;5054998;28;20040;-77
2022/11/21 06:45:27;;;;;;;1.90;1.30;;;;;;;7.01;83.29;94024.69;5055497;28;20043;-78
2022/11/21 06:47:53;;;;;;;2.63;1.77;;;;;;;6.66;83.04;93984.41;5052472;28;20040;-77
2022/11/21 06:50:18;;;;;;;3.80;1.80;;;;;;;6.75;84.17;94001.19;5041575;28;20032;-77
2022/11/21 06:52:43;;;;;;;1.20;1.00;;;;;;;6.87;83.98;94049.03;5041198;28;20056;-77
2022/11/21 06:55:09;;;;;;;1.42;1.00;;;;;;;6.35;84.14;94020.75;5041478;28;20041;-76
2022/11/21 06:57:36;;;;;;;2.15;1.42;;;;;;;6.48;85.04;94095.75;5056141;28;20048;-77
2022/11/21 07:00:03;;;;;;;2.88;1.33;;;;;;;6.00;85.37;94024.41;5044163;28;20036;-79
2022/11/21 07:02:29;;;;;;;1.90;1.20;;;;;;;5.51;86.00;93982.28;5039799;28;20135;-79
2022/11/21 07:04:54;;;;;;;2.85;1.13;;;;;;;6.05;85.49;94074.38;5038388;28;20162;-76
2022/11/21 07:07:19;;;;;;;1.98;1.20;;;;;;;5.78;85.30;94060.81;5038339;28;20127;-76
2022/11/21 07:09:46;;;;;;;1.73;1.00;;;;;;;5.52;85.55;94041.72;5055553;28;20438;-76
2022/11/21 07:14:55;;;;;;;1.27;0.90;;;;;;;5.27;87.02;94097.00;5054441;28;20043;-76
2022/11/21 07:17:20;;;;;;;4.20;1.45;;;;;;;5.24;88.90;94079.94;5065845;28;20060;-78
2022/11/21 07:19:46;;;;;;;3.10;1.27;;;;;;;5.50;89.25;94135.06;5028948;28;20430;-76
2022/11/21 07:22:11;;;;;;;3.75;1.90;;;;;;;4.85;89.47;94056.09;5056556;28;20153;-79
2022/11/21 07:24:38;;;;;;;2.35;1.23;;;;;;;4.91;90.36;94080.50;5041914;28;20040;-78
2022/11/21 07:27:03;;;;;;;1.65;1.00;;;;;;;5.22;90.39;94174.03;5069822;28;20976;-77
2022/11/21 07:29:28;;;;;;;5.60;1.67;;;;;;;5.24;90.80;94185.09;5043648;28;20051;-78
2022/11/21 07:31:54;;;;;;;4.90;2.08;;;;;;;4.87;91.31;94140.69;5055239;28;20048;-77
2022/11/21 07:34:19;;;;;;;4.70;1.77;;;;;;;4.63;91.03;94105.47;5055171;28;20052;-78
2022/11/21 07:36:45;;;;;;;2.67;1.48;;;;;;;4.50;91.21;94104.13;5060949;28;20127;-76
2022/11/21 07:39:10;;;;;;;4.93;1.73;;;;;;;4.23;91.48;94083.38;5056295;28;20031;-77
2022/11/21 07:41:36;;;;;;;5.45;1.83;;;;;;;4.93;93.28;94194.00;5048052;28;20541;-78
2022/11/21 07:44:01;;;;;;;3.45;2.00;;;;;;;5.04;92.96;94216.59;5043544;28;20406;-78
2022/11/21 07:46:26;;;;;;;7.45;2.28;;;;;;;4.48;92.88;94158.75;5057276;28;20098;-76
2022/11/21 07:48:52;;;;;;;7.18;3.63;;;;;;;5.01;92.40;94225.03;5057174;28;20470;-75
2022/11/21 07:51:17;;;;;;;7.75;2.55;;;;;;;4.99;91.82;94214.78;5054958;28;20041;-77
2022/11/21 07:53:43;;;;;;;6.85;2.13;;;;;;;4.88;93.04;94209.78;5051162;28;20106;-80
2022/11/21 07:56:08;;;;;;;6.60;2.42;;;;;;;4.66;92.22;94160.09;5029840;28;20087;-79
2022/11/21 07:58:34;;;;;;;6.25;2.88;;;;;;;4.79;92.00;94172.72;5046681;28;20049;-80
2022/11/21 08:01:05;;;;;;;3.83;2.58;;;;;;;4.72;91.29;94172.19;5038730;28;20056;-81
2022/11/21 08:03:34;;;;;;;4.95;2.58;;;;;;;4.39;90.32;94138.53;5022311;28;20059;-80
2022/11/21 08:06:03;;;;;;;4.78;2.78;;;;;;;5.20;90.38;94264.72;5045087;28;20063;-81
2022/11/21 08:08:35;;;;;;;5.18;2.42;;;;;;;4.23;89.92;94116.72;5065525;28;20051;-83
2022/11/21 08:11:04;;;;;;;3.53;2.75;;;;;;;5.28;89.73;94279.97;5056562;28;20159;-81
2022/11/21 08:13:29;;;;;;;4.50;2.42;;;;;;;4.01;88.69;94092.53;5050479;28;20055;-78
2022/11/21 08:15:55;;;;;;;3.72;2.20;;;;;;;4.60;89.18;94180.31;5054168;28;21037;-77
2022/11/21 08:18:20;;;;;;;6.13;2.45;;;;;;;4.80;89.94;94200.56;5038845;28;20044;-77
2022/11/21 08:20:46;;;;;;;6.70;2.85;;;;;;;4.80;89.93;94216.34;5054969;28;20037;-76
2022/11/21 08:23:12;;;;;;;6.30;2.38;;;;;;;5.22;89.50;94302.03;5056276;28;20105;-78
2022/11/21 08:25:39;;;;;;;2.78;1.75;;;;;;;5.08;86.47;94298.34;5038778;28;20044;-77
2022/11/21 08:28:07;;;;;;;2.33;1.55;;;;;;;4.89;87.20;94272.56;5036900;28;20568;-77
2022/11/21 08:30:33;;;;;;;3.08;1.55;;;;;;;5.10;87.01;94301.50;5040433;28;20226;-77
2022/11/21 08:33:03;;;;;;;4.70;1.95;;;;;;;4.28;87.35;94177.88;5049922;28;20740;-77
2022/11/21 08:35:29;;;;;;;4.43;1.98;;;;;;;4.20;86.82;94181.00;5038586;28;21000;-77
2022/11/21 08:37:59;;;;;;;4.20;1.60;;;;;;;4.96;85.89;94303.81;5036164;28;20048;-76
2022/11/21 08:40:25;;;;;;;1.35;1.20;;;;;;;4.99;86.43;94293.59;5041971;28;20041;-77
2022/11/21 08:43:06;;;;;;;4.13;1.55;;;;;;;5.00;86.20;94304.91;5051874;28;20461;-77
2022/11/21 08:45:32;;;;;;;3.65;1.60;;;;;;;4.35;85.12;94182.88;5038338;28;20396;-76
2022/11/21 08:47:58;;;;;;;2.38;1.55;;;;;;;5.29;86.77;94302.59;5052406;28;20033;-77
2022/11/21 08:50:25;;;;;;;2.42;1.45;;;;;;;4.97;86.24;94242.34;5043602;28;20679;-77
2022/11/21 08:52:50;;;;;;;3.30;1.88;;;;;;;5.35;85.69;94296.28;5039926;28;20690;-80
2022/11/21 08:55:15;;;;;;;6.05;2.00;;;;;;;5.14;86.61;94236.84;5052558;28;20061;-81
2022/11/21 08:57:41;;;;;;;5.68;1.80;;;;;;;5.11;84.42;94246.03;5041500;28;20047;-78
2022/11/21 09:00:09;;;;;;;2.95;1.92;;;;;;;5.43;84.78;94311.53;5046413;28;20692;-77
2022/11/21 09:02:35;;;;;;;5.35;1.85;;;;;;;4.69;84.75;94180.59;5029691;28;20575;-77
2022/11/21 09:05:00;;;;;;;5.53;2.80;;;;;;;5.04;85.03;94227.91;5049986;28;20131;-77
2022/11/21 09:07:26;;;;;;;3.30;2.13;;;;;;;5.66;83.72;94312.84;5055306;28;20048;-77
2022/11/21 09:09:51;;;;;;;3.03;1.63;;;;;;;5.61;84.39;94315.50;5047656;28;20499;-78
2022/11/21 09:12:17;;;;;;;4.18;2.22;;;;;;;5.66;84.38;94326.78;5052822;28;20880;-79
2022/11/21 09:20:10;;;;;;;3.13;2.10;;;;;;;5.18;83.96;94209.81;5045110;28;20059;-77
2022/11/21 09:22:36;;;;;;;5.35;2.10;;;;;;;5.51;84.35;94265.50;5042478;28;20743;-77
2022/11/21 09:25:01;;;;;;;6.15;2.05;;;;;;;5.64;85.76;94278.16;5034873;28;20067;-78
2022/11/21 09:27:26;;;;;;;2.78;2.03;;;;;;;5.70;83.22;94317.34;5053157;28;20044;-77
2022/11/21 09:29:52;;;;;;;5.75;2.25;;;;;;;5.36;84.77;94248.69;5052702;28;20055;-77
2022/11/21 09:32:17;;;;;;;9.10;3.65;;;;;;;5.40;86.44;94241.88;5050535;28;20048;-76
2022/11/21 09:34:43;;;;;;;3.88;2.17;;;;;;;5.76;86.33;94310.22;5036241;28;20723;-78
2022/11/21 09:37:08;;;;;;;5.38;2.78;;;;;;;5.41;87.10;94269.75;5051125;28;20097;-79
2022/11/21 09:39:34;;;;;;;11.35;3.13;;;;;;;5.44;88.03;94271.84;5053471;28;20036;-77
2022/11/21 09:42:13;;;;;;;8.10;3.25;;;;;;;5.31;88.12;94263.69;5046460;28;20127;-80
2022/11/21 09:44:58;;;;;;;6.18;2.65;;;;;;;5.36;88.62;94253.94;5052079;28;20052;-78
2022/11/21 09:47:44;;;;;;;8.43;3.22;;;;;;;5.61;88.54;94302.34;5043839;28;20075;-79
2022/11/21 09:50:12;;;;;;;8.63;3.70;;;;;;;5.57;88.98;94298.69;5030160;28;20087;-78
2022/11/21 09:52:48;;;;;;;5.85;2.90;;;;;;;5.55;87.85;94295.50;5031688;28;20054;-78
2022/11/21 09:55:27;;;;;;;5.85;2.78;;;;;;;5.59;87.75;94304.44;5033486;28;20060;-77
2022/11/21 09:57:52;;;;;;;5.55;3.03;;;;;;;5.47;87.66;94288.16;5050995;28;20048;-78
2022/11/21 10:00:24;;;;;;;5.93;2.25;;;;;;;5.08;86.63;94254.47;5036835;28;20042;-78
2022/11/21 10:02:51;;;;;;;4.72;2.60;;;;;;;5.35;87.31;94298.91;5033922;28;20044;-77
2022/11/21 10:05:24;;;;;;;5.47;2.88;;;;;;;4.62;87.24;94182.69;5048964;28;20040;-78
2022/11/21 10:07:53;;;;;;;6.40;1.95;;;;;;;4.74;86.45;94219.97;5051530;28;20090;-78
2022/11/21 10:10:55;;;;;;;2.47;2.00;;;;;;;5.10;87.61;94298.88;5051057;28;20049;-77
2022/11/21 10:13:39;;;;;;;4.88;2.38;;;;;;;5.38;88.33;94349.13;5039677;28;20063;-78
2022/11/21 10:16:21;;;;;;;3.17;2.15;;;;;;;5.23;87.32;94338.59;5052412;28;20419;-76
2022/11/21 10:18:58;;;;;;;4.03;2.67;;;;;;;5.15;88.97;94333.84;5052323;28;20047;-77
2022/11/21 10:21:23;;;;;;;3.80;2.22;;;;;;;5.01;87.79;94343.28;5051333;28;20051;-78
2022/11/21 10:24:13;;;;;;;9.90;3.22;;;;;;;4.91;89.36;94343.25;5047060;28;20450;-78
2022/11/21 10:26:47;;;;;;;6.95;4.35;;;;;;;4.87;88.88;94361.38;5048188;28;20036;-78
2022/11/21 10:29:29;;;;;;;5.57;3.38;;;;;;;4.83;89.82;94343.72;5052502;28;20083;-78
2022/11/21 10:32:00;;;;;;;5.70;3.13;;;;;;;4.91;89.17;94348.50;5031747;28;20047;-78
2022/11/21 10:34:33;;;;;;;7.35;4.25;;;;;;;4.80;89.07;94325.88;5031599;28;20052;-77
2022/11/21 10:37:09;;;;;;;6.07;3.92;;;;;;;4.98;88.27;94362.19;5024365;28;20040;-78
2022/11/21 10:39:44;;;;;;;4.43;2.55;;;;;;;4.53;87.62;94292.69;5041273;28;20044;-76
2022/11/21 10:42:09;;;;;;;3.83;2.90;;;;;;;4.89;87.13;94355.84;5034481;28;20056;-77
2022/11/21 10:47:27;;;;;;;4.78;2.80;;;;;;;4.20;86.45;94251.06;5044295;28;20079;-78
2022/11/21 10:50:08;;;;;;;4.38;3.13;;;;;;;4.93;86.77;94347.19;5047917;28;20049;-77
2022/11/21 10:56:01;;;;;;;19.50;4.55;;;;;;;5.15;89.87;94346.19;5004242;28;20063;-79
2022/11/21 10:58:54;;;;;;;16.73;4.40;;;;;;;4.98;88.42;94328.81;5052421;28;20158;-79
2022/11/21 11:01:31;;;;;;;6.60;4.03;;;;;;;4.47;89.05;94253.53;5050429;28;20044;-78
2022/11/21 11:04:08;;;;;;;6.22;3.55;;;;;;;5.05;87.88;94342.50;5052519;28;20501;-78
2022/11/21 11:06:35;;;;;;;6.25;3.95;;;;;;;4.72;88.38;94286.97;5052870;28;20040;-78
2022/11/21 11:09:01;;;;;;;7.22;3.40;;;;;;;5.16;87.96;94350.41;5034300;28;20059;-79
2022/11/21 11:11:27;;;;;;;5.60;3.17;;;;;;;4.47;88.02;94288.47;5049142;28;21128;-78
2022/11/21 11:13:57;;;;;;;7.93;3.42;;;;;;;4.99;89.81;94356.66;5050428;28;20048;-79
2022/11/21 11:16:24;;;;;;;8.15;3.67;;;;;;;4.51;90.37;94265.09;5041569;28;20191;-84
2022/11/21 11:19:02;;;;;;;8.57;4.22;;;;;;;4.01;89.07;94181.72;5038363;28;20116;-79
2022/11/21 11:21:40;;;;;;;8.38;4.75;;;;;;;5.09;88.82;94358.53;5051100;28;20070;-80
2022/11/21 11:24:08;;;;;;;12.55;5.13;;;;;;;5.13;89.67;94337.78;5049579;28;20079;-79
2022/11/21 11:26:42;;;;;;;10.82;4.35;;;;;;;4.99;87.73;94319.09;5048289;28;20479;-77
2022/11/21 11:29:12;;;;;;;8.18;5.47;;;;;;;4.75;89.65;94255.72;4933458;28;20169;-76
2022/11/21 11:31:42;;;;;;;8.68;3.65;;;;;;;4.36;87.55;94184.44;4975079;28;20038;-76
2022/11/21 11:34:12;;;;;;;6.72;4.28;;;;;;;5.35;86.83;94344.38;4981869;28;20049;-76
2022/11/21 11:36:51;;;;;;;9.88;2.70;;;;;;;5.27;86.09;94341.47;4975265;28;20054;-76
2022/11/21 11:39:29;;;;;;;5.13;3.58;;;;;;;4.94;84.40;94305.94;4971001;28;20040;-76
2022/11/21 11:47:48;;;;;;;3.45;2.35;;;;;;;4.96;82.25;94273.09;4997531;28;20072;-76
2022/11/21 11:50:21;;;;;;;3.45;2.30;;;;;;;4.99;83.48;94288.34;4992453;28;20142;-80
2022/11/21 11:53:09;;;;;;;4.38;2.38;;;;;;;5.47;83.25;94343.38;4994197;28;20141;-76
2022/11/21 11:55:53;;;;;;;5.65;2.45;;;;;;;5.44;82.52;94329.69;4979040;28;20062;-77
2022/11/21 11:58:30;;;;;;;10.90;3.05;;;;;;;5.49;82.82;94338.66;4977264;28;20698;-77
2022/11/21 12:01:05;;;;;;;2.65;2.05;;;;;;;5.36;79.46;94347.81;4994357;28;20034;-76
2022/11/21 12:03:45;;;;;;;4.18;2.63;;;;;;;5.33;81.22;94335.19;4994891;28;20800;-76